ADDS METAR Data INFO
IDs: Format: Raw Decoded Include TAF

Data at: 0717 UTC 19 Oct 2017

KIDA 190653Z 00000KT 10SM CLR 02/M02 A3004 RMK AO2 SLP163 T00221017 401891022
KIDA 190553Z 01004KT 10SM CLR 02/M01 A3006 RMK AO2 SLP172 T00221011 10167 20022 56005
KIDA 190453Z 00000KT 10SM CLR 06/M01 A3007 RMK AO2 SLP176 T00561011
KIDA 190353Z 17004KT 10SM CLR 10/M01 A3008 RMK AO2 SLP180 T01001011
KIDA 190253Z 16007KT 10SM CLR 12/M02 A3008 RMK AO2 SLP186 T01171017 56004
KIDA 190153Z 17006KT 10SM CLR 14/M02 A3009 RMK AO2 SLP187 T01391022
KIDA 190053Z 19008KT 10SM CLR 16/M02 A3008 RMK AO2 SLP177 T01561022
KIDA 182353Z 21009KT 10SM CLR 17/M01 A3009 RMK AO2 SLP179 T01671006 10189 20150 57016
KIDA 182253Z 22010KT 10SM FEW100 18/M02 A3012 RMK AO2 SLP184 T01831022
KIDA 182153Z 22017G22KT 10SM SCT120 19/M03 A3012 RMK AO2 PK WND 21026/2118 SLP184 T01891028
KIDA 182053Z 21014KT 10SM FEW110 18/M02 A3015 RMK AO2 SLP193 T01831022 58015
KIDA 181953Z 21017G23KT 10SM FEW100 18/M02 A3017 RMK AO2 SLP198 T01781022
KIDA 181853Z 20017KT 10SM CLR 17/M03 A3019 RMK AO2 SLP204 T01671028
KIDA 181753Z 22016KT 10SM FEW090 15/M02 A3020 RMK AO2 SLP213 T01501022 10150 21022 50000
KIDA 181653Z 20005KT 10SM CLR 10/00 A3020 RMK AO2 SLP220 T01000000
KIDA 181553Z 03003KT 10SM CLR 05/M01 A3020 RMK AO2 SLP226 T00501011
KIDA 181453Z 34004KT 10SM CLR 00/M03 A3020 RMK AO2 SLP226 T00001033 53013
KIDA 181353Z 00000KT 10SM CLR M01/M04 A3017 RMK AO2 SLP218 T10111039
KIDA 181253Z AUTO 20004KT 10SM CLR 03/M04 A3015 RMK AO2 SLP203 T00281039
KIDA 181153Z AUTO 19008KT 10SM CLR 03/M03 A3016 RMK AO2 SLP202 T00281033 10089 20006 55000
KIDA 181053Z AUTO 24005KT 10SM CLR 03/M03 A3016 RMK AO2 SLP199 T00331028
KIDA 180953Z AUTO 23005KT 10SM CLR 04/M03 A3015 RMK AO2 SLP196 T00441028
KIDA 180853Z AUTO 22006KT 10SM CLR 04/M03 A3016 RMK AO2 SLP199 T00441028 53010
KIDA 180753Z AUTO 21013KT 10SM CLR 07/M03 A3014 RMK AO2 SLP193 T00671028
KIDA 180653Z AUTO 18011KT 10SM CLR 08/M03 A3012 RMK AO2 SLP189 T00831033 401831039
KIDA 180553Z AUTO 21010KT 10SM CLR 07/M02 A3012 RMK AO2 SLP193 T00721022 10161 20072 53012
KIDA 180453Z AUTO 22008KT 10SM CLR 09/M02 A3010 RMK AO2 SLP192 T00891022
KIDA 180353Z AUTO 23011KT 10SM CLR 09/M02 A3009 RMK AO2 SLP192 T00941022
KIDA 180253Z AUTO 21011KT 10SM CLR 13/M04 A3008 RMK AO2 SLP186 T01331044 55001
KIDA 180153Z 19013KT 10SM CLR 14/M02 A3007 RMK AO2 SLP184 T01391017
KIDA 180053Z 19009KT 10SM CLR 14/M01 A3008 RMK AO2 SLP185 T01441006
KIDA 172353Z 21010KT 10SM CLR 16/M01 A3008 RMK AO2 SLP187 T01561006 10183 20094 56015
KIDA 172253Z 20009KT 10SM SCT100 17/M01 A3010 RMK AO2 SLP188 T01721011
KIDA 172153Z 21011KT 10SM CLR 18/M01 A3011 RMK AO2 SLP191 T01781011
KIDA 172053Z 21009KT 10SM CLR 17/M02 A3013 RMK AO2 SLP200 T01671017 58035
KIDA 171953Z 16005KT 10SM CLR 14/M02 A3018 RMK AO2 SLP221 T01391022